sensor_id;sensor_type;location;lat;lon;timestamp;pressure;altitude;pressure_sealevel;temperature;humidity
16777;BME280;8505;49.456;8.164;2022-11-21T00:01:14;98816.59;;;6.96;80.58
16777;BME280;8505;49.456;8.164;2022-11-21T00:03:42;98815.13;;;6.94;80.53
16777;BME280;8505;49.456;8.164;2022-11-21T00:06:10;98819.56;;;6.93;80.89
16777;BME280;8505;49.456;8.164;2022-11-21T00:08:38;98813.47;;;6.93;80.84
16777;BME280;8505;49.456;8.164;2022-11-21T00:11:05;98805.13;;;6.89;80.54
16777;BME280;8505;49.456;8.164;2022-11-21T00:13:33;98814.44;;;7.00;79.45
16777;BME280;8505;49.456;8.164;2022-11-21T00:16:05;98812.34;;;6.95;80.11
16777;BME280;8505;49.456;8.164;2022-11-21T00:18:34;98809.88;;;6.94;80.03
16777;BME280;8505;49.456;8.164;2022-11-21T00:21:03;98804.28;;;6.88;80.74
16777;BME280;8505;49.456;8.164;2022-11-21T00:23:32;98803.44;;;6.96;80.34
16777;BME280;8505;49.456;8.164;2022-11-21T00:26:03;98805.25;;;6.96;80.62
16777;BME280;8505;49.456;8.164;2022-11-21T00:28:31;98807.88;;;6.96;80.41
16777;BME280;8505;49.456;8.164;2022-11-21T00:30:59;98812.34;;;6.95;80.93
16777;BME280;8505;49.456;8.164;2022-11-21T00:33:26;98806.94;;;6.88;81.63
16777;BME280;8505;49.456;8.164;2022-11-21T00:35:55;98809.69;;;6.95;81.71
16777;BME280;8505;49.456;8.164;2022-11-21T00:38:23;98805.78;;;6.91;82.04
16777;BME280;8505;49.456;8.164;2022-11-21T00:40:51;98810.38;;;6.89;82.28
16777;BME280;8505;49.456;8.164;2022-11-21T00:43:18;98806.94;;;6.88;82.84
16777;BME280;8505;49.456;8.164;2022-11-21T00:45:46;98802.81;;;6.86;82.28
16777;BME280;8505;49.456;8.164;2022-11-21T00:48:14;98802.50;;;6.89;82.82
16777;BME280;8505;49.456;8.164;2022-11-21T00:50:41;98804.47;;;6.87;82.53
16777;BME280;8505;49.456;8.164;2022-11-21T00:53:10;98803.78;;;6.93;82.58
16777;BME280;8505;49.456;8.164;2022-11-21T00:55:38;98802.69;;;6.79;82.97
16777;BME280;8505;49.456;8.164;2022-11-21T00:58:05;98796.41;;;6.88;82.15
16777;BME280;8505;49.456;8.164;2022-11-21T01:00:33;98789.78;;;6.93;81.90
16777;BME280;8505;49.456;8.164;2022-11-21T01:03:01;98788.97;;;6.92;82.01
16777;BME280;8505;49.456;8.164;2022-11-21T01:05:30;98789.63;;;6.94;82.20
16777;BME280;8505;49.456;8.164;2022-11-21T01:07:58;98781.06;;;6.92;82.08
16777;BME280;8505;49.456;8.164;2022-11-21T01:10:27;98779.28;;;6.93;82.10
16777;BME280;8505;49.456;8.164;2022-11-21T01:12:55;98769.41;;;6.95;81.16
16777;BME280;8505;49.456;8.164;2022-11-21T01:15:22;98756.41;;;6.93;80.96
16777;BME280;8505;49.456;8.164;2022-11-21T01:17:50;98750.53;;;6.91;81.38
16777;BME280;8505;49.456;8.164;2022-11-21T01:20:18;98753.00;;;6.84;81.45
16777;BME280;8505;49.456;8.164;2022-11-21T01:22:45;98755.44;;;6.86;81.85
16777;BME280;8505;49.456;8.164;2022-11-21T01:25:13;98761.72;;;6.85;81.94
16777;BME280;8505;49.456;8.164;2022-11-21T01:27:42;98757.78;;;6.81;82.09
16777;BME280;8505;49.456;8.164;2022-11-21T01:30:10;98758.44;;;6.83;82.05
16777;BME280;8505;49.456;8.164;2022-11-21T01:32:39;98768.31;;;6.81;82.33
16777;BME280;8505;49.456;8.164;2022-11-21T01:35:08;98754.84;;;6.76;82.89
16777;BME280;8505;49.456;8.164;2022-11-21T01:37:36;98767.84;;;6.77;82.82
16777;BME280;8505;49.456;8.164;2022-11-21T01:40:04;98756.66;;;6.75;82.74
16777;BME280;8505;49.456;8.164;2022-11-21T01:42:50;98758.47;;;6.75;83.09
16777;BME280;8505;49.456;8.164;2022-11-21T01:45:50;98755.00;;;6.74;82.92
16777;BME280;8505;49.456;8.164;2022-11-21T01:48:20;98755.06;;;6.66;82.92
16777;BME280;8505;49.456;8.164;2022-11-21T01:50:49;98761.47;;;6.72;82.86
16777;BME280;8505;49.456;8.164;2022-11-21T01:53:17;98755.84;;;6.67;83.17
16777;BME280;8505;49.456;8.164;2022-11-21T01:55:45;98765.69;;;6.73;82.40
16777;BME280;8505;49.456;8.164;2022-11-21T01:58:14;98766.38;;;6.67;83.13
16777;BME280;8505;49.456;8.164;2022-11-21T02:00:44;98770.84;;;6.66;83.14
16777;BME280;8505;49.456;8.164;2022-11-21T02:03:18;98758.00;;;6.71;83.10
16777;BME280;8505;49.456;8.164;2022-11-21T02:05:47;98762.16;;;6.58;83.31
16777;BME280;8505;49.456;8.164;2022-11-21T02:08:17;98755.09;;;6.58;83.02
16777;BME280;8505;49.456;8.164;2022-11-21T02:10:51;98760.66;;;6.63;82.52
16777;BME280;8505;49.456;8.164;2022-11-21T02:13:23;98756.69;;;6.67;82.77
16777;BME280;8505;49.456;8.164;2022-11-21T02:15:51;98759.84;;;6.63;82.62
16777;BME280;8505;49.456;8.164;2022-11-21T02:18:18;98772.47;;;6.67;82.88
16777;BME280;8505;49.456;8.164;2022-11-21T02:20:50;98761.63;;;6.62;83.18
16777;BME280;8505;49.456;8.164;2022-11-21T02:23:25;98773.66;;;6.65;83.17
16777;BME280;8505;49.456;8.164;2022-11-21T02:25:57;98771.38;;;6.54;83.70
16777;BME280;8505;49.456;8.164;2022-11-21T02:28:26;98781.47;;;6.73;82.79
16777;BME280;8505;49.456;8.164;2022-11-21T02:30:54;98786.50;;;6.60;83.47
16777;BME280;8505;49.456;8.164;2022-11-21T02:33:22;98788.44;;;6.66;83.51
16777;BME280;8505;49.456;8.164;2022-11-21T02:35:57;98781.97;;;6.76;82.89
16777;BME280;8505;49.456;8.164;2022-11-21T02:38:28;98780.56;;;6.66;83.81
16777;BME280;8505;49.456;8.164;2022-11-21T02:41:06;98788.69;;;6.79;82.40
16777;BME280;8505;49.456;8.164;2022-11-21T02:43:39;98780.94;;;6.85;82.92
16777;BME280;8505;49.456;8.164;2022-11-21T02:46:09;98782.81;;;6.77;82.57
16777;BME280;8505;49.456;8.164;2022-11-21T02:48:36;98776.72;;;6.76;82.64
16777;BME280;8505;49.456;8.164;2022-11-21T02:51:04;98781.44;;;6.89;82.25
16777;BME280;8505;49.456;8.164;2022-11-21T02:53:32;98770.94;;;6.81;82.62
16777;BME280;8505;49.456;8.164;2022-11-21T02:56:01;98785.91;;;6.80;82.63
16777;BME280;8505;49.456;8.164;2022-11-21T02:58:31;98776.19;;;6.81;82.25
16777;BME280;8505;49.456;8.164;2022-11-21T03:00:58;98785.88;;;6.88;82.23
16777;BME280;8505;49.456;8.164;2022-11-21T03:03:26;98781.41;;;6.97;82.23
16777;BME280;8505;49.456;8.164;2022-11-21T03:05:55;98778.16;;;6.87;82.71
16777;BME280;8505;49.456;8.164;2022-11-21T03:08:23;98778.50;;;6.84;82.69
16777;BME280;8505;49.456;8.164;2022-11-21T03:10:50;98785.22;;;6.86;82.37
16777;BME280;8505;49.456;8.164;2022-11-21T03:13:19;98790.78;;;6.91;82.62
16777;BME280;8505;49.456;8.164;2022-11-21T03:15:47;98782.72;;;6.93;82.44
16777;BME280;8505;49.456;8.164;2022-11-21T03:18:15;98786.69;;;6.89;82.25
16777;BME280;8505;49.456;8.164;2022-11-21T03:20:43;98793.78;;;6.88;82.25
16777;BME280;8505;49.456;8.164;2022-11-21T03:23:10;98791.13;;;6.88;82.13
16777;BME280;8505;49.456;8.164;2022-11-21T03:25:38;98796.28;;;6.74;83.04
16777;BME280;8505;49.456;8.164;2022-11-21T03:28:05;98787.66;;;6.96;81.76
16777;BME280;8505;49.456;8.164;2022-11-21T03:30:34;98788.03;;;6.85;82.25
16777;BME280;8505;49.456;8.164;2022-11-21T03:33:02;98795.28;;;6.83;82.81
16777;BME280;8505;49.456;8.164;2022-11-21T03:35:30;98794.91;;;6.94;82.22
16777;BME280;8505;49.456;8.164;2022-11-21T03:37:58;98795.25;;;6.91;82.17
16777;BME280;8505;49.456;8.164;2022-11-21T03:40:26;98798.13;;;7.04;81.97
16777;BME280;8505;49.456;8.164;2022-11-21T03:42:54;98800.53;;;6.83;82.16
16777;BME280;8505;49.456;8.164;2022-11-21T03:45:22;98804.69;;;6.77;82.57
16777;BME280;8505;49.456;8.164;2022-11-21T03:47:51;98803.84;;;6.77;82.35
16777;BME280;8505;49.456;8.164;2022-11-21T03:50:19;98799.91;;;6.73;82.71
16777;BME280;8505;49.456;8.164;2022-11-21T03:52:46;98799.78;;;6.66;83.16
16777;BME280;8505;49.456;8.164;2022-11-21T03:55:15;98798.22;;;6.80;82.03
16777;BME280;8505;49.456;8.164;2022-11-21T03:57:42;98792.00;;;6.81;82.21
16777;BME280;8505;49.456;8.164;2022-11-21T04:00:11;98791.03;;;6.74;82.09
16777;BME280;8505;49.456;8.164;2022-11-21T04:02:40;98794.16;;;6.77;82.32
16777;BME280;8505;49.456;8.164;2022-11-21T04:05:09;98792.53;;;6.68;82.54
16777;BME280;8505;49.456;8.164;2022-11-21T04:07:37;98792.22;;;6.63;82.95
16777;BME280;8505;49.456;8.164;2022-11-21T04:10:05;98787.94;;;6.70;82.57
16777;BME280;8505;49.456;8.164;2022-11-21T04:12:33;98780.88;;;6.63;82.76
16777;BME280;8505;49.456;8.164;2022-11-21T04:15:01;98792.56;;;6.60;83.47
16777;BME280;8505;49.456;8.164;2022-11-21T04:17:30;98781.41;;;6.58;83.33
16777;BME280;8505;49.456;8.164;2022-11-21T04:19:58;98781.88;;;6.62;83.30
16777;BME280;8505;49.456;8.164;2022-11-21T04:22:27;98782.53;;;6.56;83.94
16777;BME280;8505;49.456;8.164;2022-11-21T04:24:55;98788.97;;;6.53;84.04
16777;BME280;8505;49.456;8.164;2022-11-21T04:27:22;98784.34;;;6.55;84.17
16777;BME280;8505;49.456;8.164;2022-11-21T04:29:50;98788.94;;;6.61;84.18
16777;BME280;8505;49.456;8.164;2022-11-21T04:32:18;98799.66;;;6.60;83.67
16777;BME280;8505;49.456;8.164;2022-11-21T04:34:45;98792.38;;;6.62;83.78
16777;BME280;8505;49.456;8.164;2022-11-21T04:37:13;98795.00;;;6.70;83.75
16777;BME280;8505;49.456;8.164;2022-11-21T04:39:42;98787.44;;;6.67;83.13
16777;BME280;8505;49.456;8.164;2022-11-21T04:42:10;98788.09;;;6.69;83.06
16777;BME280;8505;49.456;8.164;2022-11-21T04:44:37;98781.81;;;6.78;82.92
16777;BME280;8505;49.456;8.164;2022-11-21T04:47:05;98781.97;;;6.76;82.94
16777;BME280;8505;49.456;8.164;2022-11-21T04:49:33;98776.72;;;6.76;83.00
16777;BME280;8505;49.456;8.164;2022-11-21T04:52:00;98781.69;;;6.71;82.71
16777;BME280;8505;49.456;8.164;2022-11-21T04:54:28;98776.72;;;6.76;83.09
16777;BME280;8505;49.456;8.164;2022-11-21T04:56:57;98766.19;;;6.76;82.76
16777;BME280;8505;49.456;8.164;2022-11-21T04:59:25;98771.16;;;6.71;83.21
16777;BME280;8505;49.456;8.164;2022-11-21T05:01:53;98761.25;;;6.73;82.93
16777;BME280;8505;49.456;8.164;2022-11-21T05:04:21;98746.31;;;6.74;82.78
16777;BME280;8505;49.456;8.164;2022-11-21T05:06:49;98760.44;;;6.73;82.35
16777;BME280;8505;49.456;8.164;2022-11-21T05:09:17;98770.28;;;6.79;82.73
16777;BME280;8505;49.456;8.164;2022-11-21T05:11:44;98764.22;;;6.78;82.40
16777;BME280;8505;49.456;8.164;2022-11-21T05:14:31;98760.13;;;6.68;82.83
16777;BME280;8505;49.456;8.164;2022-11-21T05:16:59;98768.72;;;6.62;83.00
16777;BME280;8505;49.456;8.164;2022-11-21T05:19:27;98767.03;;;6.69;82.09
16777;BME280;8505;49.456;8.164;2022-11-21T05:21:54;98774.13;;;6.68;81.94
16777;BME280;8505;49.456;8.164;2022-11-21T05:24:22;98769.22;;;6.65;82.58
16777;BME280;8505;49.456;8.164;2022-11-21T05:26:51;98764.78;;;6.58;82.64
16777;BME280;8505;49.456;8.164;2022-11-21T05:29:18;98766.22;;;6.68;82.05
16777;BME280;8505;49.456;8.164;2022-11-21T05:31:54;98772.16;;;6.62;81.62
16777;BME280;8505;49.456;8.164;2022-11-21T05:34:22;98767.06;;;6.61;81.62
16777;BME280;8505;49.456;8.164;2022-11-21T05:36:51;98768.56;;;6.55;81.52
16777;BME280;8505;49.456;8.164;2022-11-21T05:39:22;98775.63;;;6.63;81.36
16777;BME280;8505;49.456;8.164;2022-11-21T05:41:50;98785.66;;;6.59;81.54
16777;BME280;8505;49.456;8.164;2022-11-21T05:44:18;98774.19;;;6.52;82.34
16777;BME280;8505;49.456;8.164;2022-11-21T05:46:44;98784.69;;;6.52;81.82
16777;BME280;8505;49.456;8.164;2022-11-21T05:49:13;98786.66;;;6.50;81.45
16777;BME280;8505;49.456;8.164;2022-11-21T05:51:41;98788.97;;;6.53;81.58
16777;BME280;8505;49.456;8.164;2022-11-21T05:54:11;98793.44;;;6.44;81.87
16777;BME280;8505;49.456;8.164;2022-11-21T05:56:40;98794.41;;;6.52;81.73
16777;BME280;8505;49.456;8.164;2022-11-21T05:59:09;98795.84;;;6.62;81.27
16777;BME280;8505;49.456;8.164;2022-11-21T06:01:37;98799.03;;;6.41;82.08
16777;BME280;8505;49.456;8.164;2022-11-21T06:04:24;98791.09;;;6.49;81.72
16777;BME280;8505;49.456;8.164;2022-11-21T06:06:52;98785.22;;;6.47;81.56
16777;BME280;8505;49.456;8.164;2022-11-21T06:09:20;98785.88;;;6.41;81.87
16777;BME280;8505;49.456;8.164;2022-11-21T06:11:48;98788.19;;;6.36;81.67
16777;BME280;8505;49.456;8.164;2022-11-21T06:14:16;98797.91;;;6.28;82.32
16777;BME280;8505;49.456;8.164;2022-11-21T06:16:44;98787.34;;;6.36;81.85
16777;BME280;8505;49.456;8.164;2022-11-21T06:19:12;98792.81;;;6.34;82.20
16777;BME280;8505;49.456;8.164;2022-11-21T06:21:40;98778.00;;;6.33;82.00
16777;BME280;8505;49.456;8.164;2022-11-21T06:24:08;98785.75;;;6.35;82.31
16777;BME280;8505;49.456;8.164;2022-11-21T06:26:37;98780.34;;;6.28;82.65
16777;BME280;8505;49.456;8.164;2022-11-21T06:29:05;98778.69;;;6.27;82.09
16777;BME280;8505;49.456;8.164;2022-11-21T06:31:32;98771.13;;;6.24;82.05
16777;BME280;8505;49.456;8.164;2022-11-21T06:34:00;98775.56;;;6.24;82.35
16777;BME280;8505;49.456;8.164;2022-11-21T06:36:27;98778.88;;;6.09;83.05
16777;BME280;8505;49.456;8.164;2022-11-21T06:38:56;98774.44;;;6.10;83.09
16777;BME280;8505;49.456;8.164;2022-11-21T06:41:25;98778.38;;;6.06;83.30
16777;BME280;8505;49.456;8.164;2022-11-21T06:43:57;98782.97;;;6.12;82.85
16777;BME280;8505;49.456;8.164;2022-11-21T06:46:26;98783.31;;;6.09;82.75
16777;BME280;8505;49.456;8.164;2022-11-21T06:48:54;98770.81;;;6.11;82.49
16777;BME280;8505;49.456;8.164;2022-11-21T06:51:23;98769.19;;;6.10;82.51
16777;BME280;8505;49.456;8.164;2022-11-21T06:53:52;98778.38;;;6.14;82.01
16777;BME280;8505;49.456;8.164;2022-11-21T06:56:23;98781.00;;;6.06;82.57
16777;BME280;8505;49.456;8.164;2022-11-21T06:58:51;98788.88;;;6.06;82.93
16777;BME280;8505;49.456;8.164;2022-11-21T07:01:19;98782.00;;;6.13;82.06
16777;BME280;8505;49.456;8.164;2022-11-21T07:03:48;98779.34;;;6.13;82.20
16777;BME280;8505;49.456;8.164;2022-11-21T07:06:15;98782.66;;;6.15;81.87
16777;BME280;8505;49.456;8.164;2022-11-21T07:08:43;98792.34;;;6.15;82.35
16777;BME280;8505;49.456;8.164;2022-11-21T07:11:12;98787.25;;;6.13;82.36
16777;BME280;8505;49.456;8.164;2022-11-21T07:13:51;98788.06;;;6.05;82.62
16777;BME280;8505;49.456;8.164;2022-11-21T07:16:18;98793.66;;;6.11;83.22
16777;BME280;8505;49.456;8.164;2022-11-21T07:18:46;98793.16;;;6.07;81.95
16777;BME280;8505;49.456;8.164;2022-11-21T07:21:13;98808.25;;;6.05;81.94
16777;BME280;8505;49.456;8.164;2022-11-21T07:23:41;98805.81;;;6.03;82.43
16777;BME280;8505;49.456;8.164;2022-11-21T07:26:09;98805.00;;;6.03;82.21
16777;BME280;8505;49.456;8.164;2022-11-21T07:28:37;98816.03;;;5.98;81.88
16777;BME280;8505;49.456;8.164;2022-11-21T07:31:07;98807.31;;;5.98;81.54
16777;BME280;8505;49.456;8.164;2022-11-21T07:33:39;98823.56;;;6.01;81.34
16777;BME280;8505;49.456;8.164;2022-11-21T07:36:08;98825.88;;;5.96;81.53
16777;BME280;8505;49.456;8.164;2022-11-21T07:38:35;98830.13;;;5.97;80.40
16777;BME280;8505;49.456;8.164;2022-11-21T07:41:03;98832.91;;;5.96;80.12
16777;BME280;8505;49.456;8.164;2022-11-21T07:43:31;98834.41;;;5.98;79.62
16777;BME280;8505;49.456;8.164;2022-11-21T07:45:58;98828.34;;;5.98;79.42
16777;BME280;8505;49.456;8.164;2022-11-21T07:48:28;98818.47;;;6.00;79.25
16777;BME280;8505;49.456;8.164;2022-11-21T07:50:56;98818.31;;;6.01;79.10
16777;BME280;8505;49.456;8.164;2022-11-21T07:53:24;98810.91;;;5.97;79.75
16777;BME280;8505;49.456;8.164;2022-11-21T07:55:52;98812.72;;;5.96;79.23
16777;BME280;8505;49.456;8.164;2022-11-21T07:58:19;98822.56;;;6.02;78.91
16777;BME280;8505;49.456;8.164;2022-11-21T08:00:47;98816.81;;;6.07;79.13
16777;BME280;8505;49.456;8.164;2022-11-21T08:03:16;98820.13;;;6.09;79.40
16777;BME280;8505;49.456;8.164;2022-11-21T08:05:45;98817.28;;;6.19;78.92
16777;BME280;8505;49.456;8.164;2022-11-21T08:08:13;98813.69;;;6.20;78.68
16777;BME280;8505;49.456;8.164;2022-11-21T08:10:42;98820.59;;;6.29;77.98
16777;BME280;8505;49.456;8.164;2022-11-21T08:13:10;98806.28;;;6.31;78.33
16777;BME280;8505;49.456;8.164;2022-11-21T08:15:38;98818.28;;;6.34;78.05
16777;BME280;8505;49.456;8.164;2022-11-21T08:18:07;98811.53;;;6.31;78.04
16777;BME280;8505;49.456;8.164;2022-11-21T08:20:35;98817.91;;;6.45;77.35
16777;BME280;8505;49.456;8.164;2022-11-21T08:23:04;98802.81;;;6.47;77.07
16777;BME280;8505;49.456;8.164;2022-11-21T08:25:33;98799.66;;;6.52;77.16
16777;BME280;8505;49.456;8.164;2022-11-21T08:28:00;98802.94;;;6.54;76.44
16777;BME280;8505;49.456;8.164;2022-11-21T08:30:29;98798.81;;;6.59;76.50
16777;BME280;8505;49.456;8.164;2022-11-21T08:32:57;98801.78;;;6.56;76.34
16777;BME280;8505;49.456;8.164;2022-11-21T08:35:25;98794.03;;;6.55;76.68
16777;BME280;8505;49.456;8.164;2022-11-21T08:37:57;98787.44;;;6.67;75.53
16777;BME280;8505;49.456;8.164;2022-11-21T08:40:27;98793.03;;;6.72;75.86
16777;BME280;8505;49.456;8.164;2022-11-21T08:42:56;98793.66;;;6.74;75.32
16777;BME280;8505;49.456;8.164;2022-11-21T08:45:24;98784.13;;;6.73;75.49
16777;BME280;8505;49.456;8.164;2022-11-21T08:47:53;98778.69;;;6.74;75.75
16777;BME280;8505;49.456;8.164;2022-11-21T08:50:21;98780.19;;;6.77;75.37
16777;BME280;8505;49.456;8.164;2022-11-21T08:52:49;98775.22;;;6.82;75.18
16777;BME280;8505;49.456;8.164;2022-11-21T08:55:17;98771.09;;;6.79;75.35
16777;BME280;8505;49.456;8.164;2022-11-21T08:57:46;98762.06;;;6.82;75.10
16777;BME280;8505;49.456;8.164;2022-11-21T09:00:15;98750.19;;;6.86;74.75
16777;BME280;8505;49.456;8.164;2022-11-21T09:02:42;98764.31;;;6.93;74.75
16777;BME280;8505;49.456;8.164;2022-11-21T09:08:52;98762.41;;;7.10;74.66
16777;BME280;8505;49.456;8.164;2022-11-21T09:11:19;98773.38;;;7.21;74.91
16777;BME280;8505;49.456;8.164;2022-11-21T09:13:48;98772.44;;;7.14;74.63
16777;BME280;8505;49.456;8.164;2022-11-21T09:16:30;98774.91;;;7.16;73.97
16777;BME280;8505;49.456;8.164;2022-11-21T09:19:15;98767.88;;;7.31;73.83
16777;BME280;8505;49.456;8.164;2022-11-21T09:21:43;98766.41;;;7.28;74.26
16777;BME280;8505;49.456;8.164;2022-11-21T09:24:11;98764.78;;;7.27;74.31
16777;BME280;8505;49.456;8.164;2022-11-21T09:26:39;98767.06;;;7.30;74.31
16777;BME280;8505;49.456;8.164;2022-11-21T09:29:08;98751.25;;;7.30;75.00
16777;BME280;8505;49.456;8.164;2022-11-21T09:31:36;98758.28;;;7.38;73.70
16777;BME280;8505;49.456;8.164;2022-11-21T09:34:04;98753.97;;;7.45;73.52
16777;BME280;8505;49.456;8.164;2022-11-21T09:36:32;98744.38;;;7.52;72.89
16777;BME280;8505;49.456;8.164;2022-11-21T09:38:59;98734.97;;;7.50;72.76
16777;BME280;8505;49.456;8.164;2022-11-21T09:41:31;98741.63;;;7.46;73.01
16777;BME280;8505;49.456;8.164;2022-11-21T09:44:34;98742.63;;;7.59;73.06
16777;BME280;8505;49.456;8.164;2022-11-21T09:47:18;98750.34;;;7.46;72.72
16777;BME280;8505;49.456;8.164;2022-11-21T09:49:51;98750.13;;;7.48;72.91
16777;BME280;8505;49.456;8.164;2022-11-21T09:52:25;98748.72;;;7.60;73.14
16777;BME280;8505;49.456;8.164;2022-11-21T09:54:58;98743.47;;;7.60;71.79
16777;BME280;8505;49.456;8.164;2022-11-21T09:57:28;98745.88;;;7.84;71.13
16777;BME280;8505;49.456;8.164;2022-11-21T10:00:03;98734.66;;;8.05;71.95
16777;BME280;8505;49.456;8.164;2022-11-21T10:02:39;98726.81;;;7.97;70.29
16777;BME280;8505;49.456;8.164;2022-11-21T10:05:11;98722.31;;;8.05;69.90
16777;BME280;8505;49.456;8.164;2022-11-21T10:07:41;98719.59;;;8.13;69.66
16777;BME280;8505;49.456;8.164;2022-11-21T10:10:26;98721.13;;;8.23;69.77
16777;BME280;8505;49.456;8.164;2022-11-21T10:13:05;98713.75;;;8.18;69.87
16777;BME280;8505;49.456;8.164;2022-11-21T10:15:49;98730.34;;;8.27;70.25
16777;BME280;8505;49.456;8.164;2022-11-21T10:18:33;98721.13;;;8.23;70.54
16777;BME280;8505;49.456;8.164;2022-11-21T10:21:11;98719.06;;;8.47;68.37
16777;BME280;8505;49.456;8.164;2022-11-21T10:24:19;98707.06;;;8.45;68.06
16777;BME280;8505;49.456;8.164;2022-11-21T10:26:52;98703.78;;;8.43;67.79
16777;BME280;8505;49.456;8.164;2022-11-21T10:29:24;98699.69;;;8.40;68.28
16777;BME280;8505;49.456;8.164;2022-11-21T10:31:57;98700.97;;;8.44;68.42
16777;BME280;8505;49.456;8.164;2022-11-21T10:34:29;98682.94;;;8.63;67.37
16777;BME280;8505;49.456;8.164;2022-11-21T10:37:09;98673.78;;;8.80;66.36
16777;BME280;8505;49.456;8.164;2022-11-21T10:39:40;98663.25;;;9.01;65.48
16777;BME280;8505;49.456;8.164;2022-11-21T10:42:15;98658.22;;;9.27;64.60
16777;BME280;8505;49.456;8.164;2022-11-21T10:44:50;98651.91;;;9.78;63.40
16777;BME280;8505;49.456;8.164;2022-11-21T10:47:39;98647.44;;;9.78;63.71
16777;BME280;8505;49.456;8.164;2022-11-21T10:50:17;98637.44;;;10.08;62.14
16777;BME280;8505;49.456;8.164;2022-11-21T10:52:52;98628.31;;;10.51;61.29
16777;BME280;8505;49.456;8.164;2022-11-21T10:55:23;98625.94;;;10.70;58.91
16777;BME280;8505;49.456;8.164;2022-11-21T10:57:51;98625.22;;;11.28;57.81
16777;BME280;8505;49.456;8.164;2022-11-21T11:00:22;98612.78;;;11.42;57.66
16777;BME280;8505;49.456;8.164;2022-11-21T11:03:04;98612.16;;;11.01;57.42
16777;BME280;8505;49.456;8.164;2022-11-21T11:05:33;98606.03;;;11.07;57.94
16777;BME280;8505;49.456;8.164;2022-11-21T11:08:04;98609.31;;;11.55;55.35
16777;BME280;8505;49.456;8.164;2022-11-21T11:10:34;98604.84;;;11.35;55.64
16777;BME280;8505;49.456;8.164;2022-11-21T11:13:02;98599.84;;;12.11;54.09
16777;BME280;8505;49.456;8.164;2022-11-21T11:16:14;98598.06;;;11.79;54.80
16777;BME280;8505;49.456;8.164;2022-11-21T11:18:50;98586.25;;;11.88;54.51
16777;BME280;8505;49.456;8.164;2022-11-21T11:21:21;98579.94;;;11.56;55.42
16777;BME280;8505;49.456;8.164;2022-11-21T11:23:51;98577.19;;;12.53;52.60
16777;BME280;8505;49.456;8.164;2022-11-21T11:26:23;98575.53;;;12.59;51.99
16777;BME280;8505;49.456;8.164;2022-11-21T11:28:52;98566.28;;;12.30;52.96
16777;BME280;8505;49.456;8.164;2022-11-21T11:31:22;98566.16;;;12.12;52.96
16777;BME280;8505;49.456;8.164;2022-11-21T11:33:52;98566.09;;;11.34;55.84
16777;BME280;8505;49.456;8.164;2022-11-21T11:36:33;98559.13;;;10.61;58.32
16777;BME280;8505;49.456;8.164;2022-11-21T11:39:09;98550.31;;;10.41;59.58
16777;BME280;8505;49.456;8.164;2022-11-21T11:41:57;98550.97;;;10.08;60.57
16777;BME280;8505;49.456;8.164;2022-11-21T11:44:54;98565.75;;;9.90;61.56
16777;BME280;8505;49.456;8.164;2022-11-21T11:47:47;98548.41;;;9.46;62.91
16777;BME280;8505;49.456;8.164;2022-11-21T11:50:24;98550.25;;;9.46;63.53
16777;BME280;8505;49.456;8.164;2022-11-21T11:52:59;98538.06;;;9.86;62.26
16777;BME280;8505;49.456;8.164;2022-11-21T11:55:32;98543.03;;;10.63;60.67
16777;BME280;8505;49.456;8.164;2022-11-21T11:58:06;98542.53;;;10.26;59.41
16777;BME280;8505;49.456;8.164;2022-11-21T12:00:41;98539.88;;;10.26;59.08
16777;BME280;8505;49.456;8.164;2022-11-21T12:03:14;98523.22;;;10.39;59.41
16777;BME280;8505;49.456;8.164;2022-11-21T12:05:57;98527.31;;;10.41;59.91
16777;BME280;8505;49.456;8.164;2022-11-21T12:08:38;98522.84;;;10.42;60.17
16777;BME280;8505;49.456;8.164;2022-11-21T12:11:14;98519.25;;;10.08;60.73
16777;BME280;8505;49.456;8.164;2022-11-21T12:14:07;98517.16;;;10.58;59.47
16777;BME280;8505;49.456;8.164;2022-11-21T12:16:38;98517.16;;;10.51;60.03
16777;BME280;8505;49.456;8.164;2022-11-21T12:19:11;98510.81;;;10.33;59.91
16777;BME280;8505;49.456;8.164;2022-11-21T12:21:42;98514.53;;;10.78;58.12
16777;BME280;8505;49.456;8.164;2022-11-21T12:24:11;98503.84;;;10.25;59.59
16777;BME280;8505;49.456;8.164;2022-11-21T12:26:46;98500.66;;;10.43;59.17
16777;BME280;8505;49.456;8.164;2022-11-21T12:29:27;98487.22;;;10.44;58.40
16777;BME280;8505;49.456;8.164;2022-11-21T12:32:12;98478.06;;;11.00;56.78
16777;BME280;8505;49.456;8.164;2022-11-21T12:34:58;98464.66;;;11.72;54.41
16777;BME280;8505;49.456;8.164;2022-11-21T12:37:35;98446.44;;;11.95;52.94
16777;BME280;8505;49.456;8.164;2022-11-21T12:40:20;98449.19;;;12.13;52.63
16777;BME280;8505;49.456;8.164;2022-11-21T12:42:58;98441.59;;;12.48;51.53
16777;BME280;8505;49.456;8.164;2022-11-21T12:45:31;98442.41;;;11.80;52.87
16777;BME280;8505;49.456;8.164;2022-11-21T12:48:16;98447.91;;;11.07;54.53
16777;BME280;8505;49.456;8.164;2022-11-21T12:54:36;98431.97;;;12.23;51.42
16777;BME280;8505;49.456;8.164;2022-11-21T12:57:08;98419.88;;;12.58;50.20
16777;BME280;8505;49.456;8.164;2022-11-21T12:59:50;98411.31;;;12.56;51.26
16777;BME280;8505;49.456;8.164;2022-11-21T13:02:27;98407.13;;;12.67;51.78
16777;BME280;8505;49.456;8.164;2022-11-21T13:04:58;98393.09;;;12.35;52.68
16777;BME280;8505;49.456;8.164;2022-11-21T13:07:28;98395.63;;;12.23;53.16
16777;BME280;8505;49.456;8.164;2022-11-21T13:10:00;98395.91;;;11.70;54.67
16777;BME280;8505;49.456;8.164;2022-11-21T13:12:36;98392.84;;;11.80;54.37
16777;BME280;8505;49.456;8.164;2022-11-21T13:15:20;98398.97;;;11.74;55.48
16777;BME280;8505;49.456;8.164;2022-11-21T13:17:53;98403.50;;;10.89;57.89
16777;BME280;8505;49.456;8.164;2022-11-21T13:20:27;98401.69;;;10.77;59.17
16777;BME280;8505;49.456;8.164;2022-11-21T13:22:58;98400.88;;;10.83;59.58
16777;BME280;8505;49.456;8.164;2022-11-21T13:25:52;98391.53;;;10.74;59.54
16777;BME280;8505;49.456;8.164;2022-11-21T13:28:31;98386.16;;;11.00;59.47
16777;BME280;8505;49.456;8.164;2022-11-21T13:31:01;98381.91;;;10.92;59.35
16777;BME280;8505;49.456;8.164;2022-11-21T13:33:45;98375.38;;;11.02;58.62
16777;BME280;8505;49.456;8.164;2022-11-21T13:36:35;98370.38;;;11.31;58.79
16777;BME280;8505;49.456;8.164;2022-11-21T13:39:25;98372.28;;;11.11;59.31
16777;BME280;8505;49.456;8.164;2022-11-21T13:42:12;98365.22;;;10.92;60.66
16777;BME280;8505;49.456;8.164;2022-11-21T13:44:58;98354.41;;;10.80;60.96
16777;BME280;8505;49.456;8.164;2022-11-21T13:48:00;98361.19;;;10.43;62.54
16777;BME280;8505;49.456;8.164;2022-11-21T13:50:56;98359.16;;;10.19;63.43